Time;durP1;ratioP1;P1;durP2;ratioP2;P2;SDS_P1;SDS_P2;PMS_P1;PMS_P2;Temp;Humidity;BMP_temperature;BMP_pressure;BME280_temperature;BME280_humidity;BME280_pressure;Samples;Min_cycle;Max_cycle;Signal;HPM_P1;HPM_P2
2020/12/02 00:00:46;;;;;;;12.03;6.57;;;;;;;3.32;70.63;100339.63;361915;111;1965009;-76
2020/12/02 00:01:55;;;;;;;12.99;6.54;;;;;;;3.32;70.67;100348.48;356525;111;1961986;-74
2020/12/02 00:03:16;;;;;;;10.71;6.18;;;;;;;3.35;70.33;100345.52;355799;111;1961994;-75
2020/12/02 00:04:24;;;;;;;10.39;6.02;;;;;;;3.36;70.38;100349.02;345849;114;1962137;-74
2020/12/02 00:05:32;;;;;;;10.57;6.29;;;;;;;3.35;70.19;100352.69;344958;112;1969918;-75
2020/12/02 00:06:41;;;;;;;11.07;6.14;;;;;;;3.35;70.40;100339.34;308920;112;2101410;-75
2020/12/02 00:07:49;;;;;;;10.01;6.05;;;;;;;3.39;70.45;100348.77;357651;111;1961904;-75
2020/12/02 00:09:01;;;;;;;9.98;5.79;;;;;;;3.40;70.26;100345.94;342859;112;1961944;-75
2020/12/02 00:10:07;;;;;;;;;;;;;;;3.42;69.92;100354.65;359972;111;1959999;-75
2020/12/02 00:11:14;;;;;;;11.69;6.07;;;;;;;3.42;70.01;100349.31;356662;111;1961078;-75
2020/12/02 00:12:19;;;;;;;10.64;6.54;;;;;;;3.45;69.91;100357.03;356351;112;1961904;-74
2020/12/02 00:13:32;;;;;;;10.97;6.56;;;;;;;3.43;69.70;100356.33;356838;111;1961915;-76
2020/12/02 00:14:37;;;;;;;;;;;;;;;3.39;69.81;100351.44;340907;111;2345977;-76
2020/12/02 00:15:42;;;;;;;11.52;5.96;;;;;;;3.33;69.89;100355.48;320311;113;2052063;-75
2020/12/02 00:16:48;;;;;;;11.04;6.06;;;;;;;3.26;69.84;100357.06;352137;113;1961017;-74
2020/12/02 00:17:56;;;;;;;9.86;5.86;;;;;;;3.15;70.02;100358.06;350611;113;1960866;-74
2020/12/02 00:19:02;;;;;;;11.98;6.38;;;;;;;3.06;70.38;100353.55;323265;111;1962044;-75
2020/12/02 00:20:08;;;;;;;11.34;5.85;;;;;;;2.97;70.67;100349.91;356189;111;1960974;-74
2020/12/02 00:21:13;;;;;;;13.56;6.37;;;;;;;2.92;70.80;100356.64;350135;114;1960989;-74
2020/12/02 00:22:22;;;;;;;10.31;5.78;;;;;;;2.89;71.08;100349.77;356949;112;1961008;-75
2020/12/02 00:23:28;;;;;;;10.78;6.01;;;;;;;2.90;71.28;100355.94;357583;111;1960895;-75
2020/12/02 00:24:35;;;;;;;10.08;5.25;;;;;;;2.91;71.41;100355.81;356261;112;1962079;-75
2020/12/02 00:25:40;;;;;;;10.42;5.46;;;;;;;2.94;71.34;100352.86;339608;111;2230018;-74
2020/12/02 00:26:46;;;;;;;10.62;5.13;;;;;;;2.97;71.33;100349.06;352005;113;1960952;-75
2020/12/02 00:27:52;;;;;;;8.77;4.94;;;;;;;2.99;71.08;100350.61;351725;113;1960941;-74
2020/12/02 00:28:58;;;;;;;8.47;4.80;;;;;;;2.98;70.97;100356.91;356331;111;1963012;-74
2020/12/02 00:30:07;;;;;;;9.46;4.44;;;;;;;3.00;71.04;100351.45;354583;111;1961997;-74
2020/12/02 00:31:14;;;;;;;10.54;5.22;;;;;;;3.04;70.92;100347.50;357070;111;1961962;-74
2020/12/02 00:32:32;;;;;;;10.21;5.61;;;;;;;3.02;70.88;100352.16;326067;111;1962971;-75
2020/12/02 00:33:39;;;;;;;10.69;5.29;;;;;;;3.03;70.84;100348.49;349981;114;1961970;-74
2020/12/02 00:34:44;;;;;;;10.67;5.56;;;;;;;3.05;71.08;100352.70;287291;114;2224673;-75
2020/12/02 00:35:51;;;;;;;11.37;5.93;;;;;;;3.08;71.06;100348.92;329442;114;1964020;-75
2020/12/02 00:36:58;;;;;;;10.66;5.43;;;;;;;3.11;71.08;100350.46;350214;114;1962056;-75
2020/12/02 00:38:06;;;;;;;11.63;6.11;;;;;;;3.15;71.25;100351.84;306952;114;2053363;-75
2020/12/02 00:39:12;;;;;;;10.20;5.97;;;;;;;3.20;71.09;100357.61;348945;114;1962053;-74
2020/12/02 00:40:18;;;;;;;9.97;5.14;;;;;;;3.22;71.03;100358.32;289818;114;2221195;-74
2020/12/02 00:41:24;;;;;;;9.91;5.28;;;;;;;3.23;70.95;100360.02;339173;114;1961768;-73
2020/12/02 00:42:29;;;;;;;10.48;5.81;;;;;;;3.25;70.60;100366.88;349805;110;1962979;-76
2020/12/02 00:43:34;;;;;;;13.53;6.57;;;;;;;3.25;70.85;100363.38;352583;113;1962871;-76
2020/12/02 00:44:40;;;;;;;11.18;5.69;;;;;;;3.27;70.70;100358.73;351229;114;1963009;-75
2020/12/02 00:45:46;;;;;;;11.65;7.25;;;;;;;3.31;70.99;100354.81;349187;114;1961943;-76
2020/12/02 00:47:02;;;;;;;11.41;5.64;;;;;;;3.34;70.80;100354.52;311182;113;2663943;-76
2020/12/02 00:48:14;;;;;;;12.50;5.86;;;;;;;3.37;70.63;100359.58;296480;111;2170627;-75
2020/12/02 00:49:19;;;;;;;10.26;5.69;;;;;;;3.39;70.56;100354.94;352386;113;1962087;-76
2020/12/02 00:50:26;;;;;;;10.33;5.41;;;;;;;3.43;70.61;100359.00;357465;111;1962033;-77
2020/12/02 00:51:32;;;;;;;11.63;6.49;;;;;;;3.45;70.50;100358.87;318733;111;2665993;-77
2020/12/02 00:52:37;;;;;;;10.14;5.57;;;;;;;3.47;70.45;100355.06;352224;113;1963977;-77
2020/12/02 00:53:43;;;;;;;10.86;5.93;;;;;;;3.50;70.41;100357.45;357093;112;1962967;-77
2020/12/02 00:54:49;;;;;;;9.44;5.35;;;;;;;3.53;70.16;100358.98;357273;112;1963912;-77
2020/12/02 00:55:56;;;;;;;9.55;5.01;;;;;;;3.51;70.06;100359.13;352952;114;1962019;-77
2020/12/02 00:57:03;;;;;;;9.86;5.27;;;;;;;3.50;70.15;100362.79;352018;113;1962068;-77
2020/12/02 00:58:12;;;;;;;9.73;5.33;;;;;;;3.52;70.12;100359.98;350416;113;1960825;-77
2020/12/02 00:59:21;;;;;;;9.72;5.06;;;;;;;3.50;69.97;100356.61;356267;111;1960984;-76
2020/12/02 01:00:31;;;;;;;;;;;;;;;3.52;70.11;100354.64;361512;112;1960928;-76
2020/12/02 01:02:05;;;;;;;8.34;4.88;;;;;;;3.53;69.91;100358.98;356827;111;1961005;-77
2020/12/02 01:03:19;;;;;;;10.57;5.53;;;;;;;3.54;69.93;100355.32;341190;111;2257933;-76
2020/12/02 01:04:25;;;;;;;11.25;5.97;;;;;;;3.46;69.77;100355.20;318919;111;2056062;-77
2020/12/02 01:05:31;;;;;;;11.01;6.22;;;;;;;3.39;69.92;100354.94;347453;111;1962018;-76
2020/12/02 01:06:38;;;;;;;10.08;5.78;;;;;;;3.35;69.72;100352.69;348679;106;1962052;-78
2020/12/02 01:07:45;;;;;;;11.34;6.72;;;;;;;3.25;70.10;100353.53;328499;112;2217973;-78
2020/12/02 01:08:50;;;;;;;13.02;6.95;;;;;;;3.16;70.22;100356.22;355307;113;1963017;-78
2020/12/02 01:09:56;;;;;;;10.81;6.01;;;;;;;3.07;70.50;100344.58;356409;112;1961823;-78
2020/12/02 01:11:09;;;;;;;11.04;5.56;;;;;;;2.99;70.75;100347.94;349519;114;1960893;-78
2020/12/02 01:12:17;;;;;;;10.59;5.49;;;;;;;2.97;70.85;100344.56;345458;116;1961954;-76
2020/12/02 01:13:24;;;;;;;11.06;6.23;;;;;;;2.97;70.93;100339.23;312377;119;2370014;-76
2020/12/02 01:14:30;;;;;;;11.57;5.92;;;;;;;3.00;71.00;100338.11;338401;118;1961938;-76
2020/12/02 01:15:37;;;;;;;9.53;5.60;;;;;;;3.03;70.96;100346.66;342195;116;1961939;-76
2020/12/02 01:16:46;;;;;;;10.49;5.71;;;;;;;3.06;70.88;100343.70;314183;118;1961854;-75
2020/12/02 01:18:09;;;;;;;10.35;5.46;;;;;;;3.09;70.82;100347.92;320953;116;2357019;-76
2020/12/02 01:19:15;;;;;;;;;;;;;;;3.10;70.60;100344.28;346826;115;1960955;-75
2020/12/02 01:20:25;;;;;;;11.09;5.21;;;;;;;3.11;70.68;100343.29;307994;117;2618229;31
2020/12/02 01:21:34;;;;;;;11.24;5.73;;;;;;;3.15;70.51;100344.70;357721;111;1963908;-75
2020/12/02 01:22:42;;;;;;;9.98;5.46;;;;;;;3.19;70.39;100342.59;357457;111;1964019;-75
2020/12/02 01:23:54;;;;;;;10.90;5.64;;;;;;;3.20;70.29;100339.79;356317;113;1962030;-75
2020/12/02 01:25:20;;;;;;;10.00;5.45;;;;;;;3.23;70.32;100342.17;353449;112;1963951;-75
2020/12/02 01:26:41;;;;;;;10.76;5.42;;;;;;;3.25;70.19;100340.17;316670;114;1962097;-74
2020/12/02 01:27:59;;;;;;;10.44;5.81;;;;;;;3.26;70.00;100333.88;351364;108;1960822;-75
2020/12/02 01:29:09;;;;;;;9.69;5.34;;;;;;;3.29;69.66;100336.25;348834;106;2894869;-75
2020/12/02 01:30:16;;;;;;;12.11;6.38;;;;;;;3.29;69.77;100335.41;320093;112;2579779;-75
2020/12/02 01:31:24;;;;;;;12.31;6.44;;;;;;;3.29;69.62;100340.75;349678;114;1960796;-75
2020/12/02 01:32:29;;;;;;;12.98;6.87;;;;;;;3.24;69.68;100343.01;304476;114;2237820;-74
2020/12/02 01:33:34;;;;;;;13.61;7.03;;;;;;;3.14;69.75;100337.66;323192;113;1960651;-75
2020/12/02 01:34:40;;;;;;;11.61;7.08;;;;;;;3.03;70.08;100335.98;348596;113;1960776;-75
2020/12/02 01:35:48;;;;;;;12.35;6.91;;;;;;;2.95;70.25;100333.18;351209;113;1960803;-75
2020/12/02 01:37:14;;;;;;;12.66;6.38;;;;;;;2.88;70.50;100339.22;307688;113;2095147;-75
2020/12/02 01:38:23;;;;;;;11.39;5.78;;;;;;;2.78;70.79;100328.52;349755;105;1961930;-74
2020/12/02 01:39:34;;;;;;;12.41;6.83;;;;;;;2.75;70.83;100334.14;315265;112;1996940;-74
2020/12/02 01:40:40;;;;;;;11.55;6.63;;;;;;;2.75;70.96;100331.48;347067;114;1963049;-74
2020/12/02 01:41:48;;;;;;;10.31;5.56;;;;;;;2.77;71.03;100333.02;347423;114;1962010;-75
2020/12/02 01:43:00;;;;;;;10.43;5.63;;;;;;;2.80;70.99;100327.41;344376;114;1961977;-75
2020/12/02 01:44:05;;;;;;;10.74;6.15;;;;;;;2.83;71.03;100329.82;346616;115;1960661;-75
2020/12/02 01:45:17;;;;;;;12.09;6.06;;;;;;;2.90;71.01;100330.09;347558;115;1962042;-73
2020/12/02 01:46:39;;;;;;;11.12;5.96;;;;;;;2.94;70.99;100333.31;346604;114;1961986;-74
2020/12/02 01:48:24;;;;;;;12.39;5.62;;;;;;;2.97;70.83;100328.55;346573;114;1962005;-74
2020/12/02 01:49:37;;;;;;;11.19;5.03;;;;;;;3.03;70.85;100333.31;344449;114;1961973;-74
2020/12/02 01:50:47;;;;;;;9.82;5.21;;;;;;;3.06;70.59;100329.52;333701;118;1961982;-73
2020/12/02 01:51:59;;;;;;;11.37;5.65;;;;;;;3.08;70.66;100325.73;342325;116;1962901;-73
2020/12/02 01:53:17;;;;;;;10.84;5.87;;;;;;;3.11;70.56;100326.44;349011;114;1961974;-73
2020/12/02 01:54:31;;;;;;;10.57;5.59;;;;;;;3.15;70.51;100327.83;346856;114;1962058;-74
2020/12/02 01:55:43;;;;;;;10.46;6.28;;;;;;;3.19;70.48;100324.73;341566;114;1962024;-74
2020/12/02 01:57:04;;;;;;;11.32;5.55;;;;;;;3.22;70.20;100321.78;345675;114;1961887;-73
2020/12/02 01:58:17;;;;;;;11.86;6.23;;;;;;;3.25;70.30;100326.83;322954;114;2230021;-75
2020/12/02 01:59:31;;;;;;;13.03;6.47;;;;;;;3.27;70.20;100316.86;348186;115;1962056;-73
2020/12/02 02:00:40;;;;;;;12.02;5.56;;;;;;;3.31;70.12;100317.43;334637;119;1961993;-75
2020/12/02 02:02:06;;;;;;;10.45;5.19;;;;;;;3.33;70.12;100319.94;345283;115;1961876;-74
2020/12/02 02:03:16;;;;;;;13.12;6.66;;;;;;;3.35;69.87;100315.30;347186;114;1962881;-75
2020/12/02 02:04:26;;;;;;;14.92;7.59;;;;;;;3.37;69.92;100310.67;345531;114;1961931;-75
2020/12/02 02:05:56;;;;;;;14.75;8.55;;;;;;;3.38;69.79;100309.67;347318;114;1961994;-74
2020/12/02 02:07:18;;;;;;;13.51;7.40;;;;;;;3.34;69.64;100311.80;347709;117;1962015;-75
2020/12/02 02:08:27;;;;;;;15.99;8.76;;;;;;;3.23;69.70;100318.14;334318;116;1963073;-75
2020/12/02 02:09:34;;;;;;;13.49;7.67;;;;;;;3.09;69.85;100315.89;294845;119;2201215;-74
2020/12/02 02:10:43;;;;;;;14.06;7.48;;;;;;;2.95;70.22;100319.84;345110;114;1962925;-74
2020/12/02 02:11:52;;;;;;;13.31;7.61;;;;;;;2.85;70.38;100313.66;345755;116;1962014;-74
2020/12/02 02:13:29;;;;;;;13.09;7.81;;;;;;;2.74;70.97;100316.47;347081;114;1962928;-74
2020/12/02 02:14:44;;;;;;;12.82;6.25;;;;;;;2.64;70.98;100309.28;346413;114;1962073;-75
2020/12/02 02:15:53;;;;;;;11.77;6.92;;;;;;;2.61;71.75;100314.06;345281;117;1961945;-74
2020/12/02 02:17:00;;;;;;;12.13;6.53;;;;;;;2.59;71.48;100318.68;348389;115;1963958;-74
2020/12/02 02:18:15;;;;;;;11.33;5.45;;;;;;;2.58;71.60;100317.01;307531;114;2723938;-75
2020/12/02 02:19:24;;;;;;;11.36;5.80;;;;;;;2.59;71.70;100316.88;291930;114;2195785;-74
2020/12/02 02:20:34;;;;;;;11.58;5.89;;;;;;;2.63;71.43;100318.27;327025;114;2365036;-74
2020/12/02 02:21:40;;;;;;;10.50;5.61;;;;;;;2.62;71.31;100316.60;296350;114;2863998;-75
2020/12/02 02:22:45;;;;;;;12.95;6.51;;;;;;;2.66;71.36;100317.16;340260;114;1962958;-75
2020/12/02 02:23:51;;;;;;;12.51;6.85;;;;;;;2.68;71.38;100317.03;347145;114;1962037;-75
2020/12/02 02:24:56;;;;;;;11.66;5.78;;;;;;;2.72;71.22;100313.92;347672;114;1962889;-75
2020/12/02 02:26:16;;;;;;;12.79;6.13;;;;;;;2.74;71.33;100316.47;346299;114;1961991;-74
2020/12/02 02:27:25;;;;;;;10.54;5.80;;;;;;;2.74;71.25;100319.97;348587;114;1960936;-75
2020/12/02 02:28:34;;;;;;;10.13;5.93;;;;;;;2.77;71.17;100318.84;347279;117;1960663;-75
2020/12/02 02:29:42;;;;;;;9.99;5.36;;;;;;;2.78;71.21;100309.84;348755;114;1961940;-73
2020/12/02 02:30:50;;;;;;;10.54;5.76;;;;;;;2.78;71.26;100315.19;317831;114;2526896;-74
2020/12/02 02:32:11;;;;;;;10.90;5.01;;;;;;;2.82;71.32;100313.94;346599;114;1962019;-74
2020/12/02 02:33:18;;;;;;;9.64;5.16;;;;;;;2.85;71.16;100311.82;347207;114;1964020;-73
2020/12/02 02:34:27;;;;;;;10.48;5.30;;;;;;;2.89;70.97;100316.91;346910;114;1963952;-73
2020/12/02 02:35:34;;;;;;;11.07;5.81;;;;;;;2.91;70.89;100312.24;311647;114;2631988;-75
2020/12/02 02:36:40;;;;;;;12.94;6.19;;;;;;;2.93;70.70;100316.46;346209;114;1962000;-75
2020/12/02 02:37:47;;;;;;;14.31;6.44;;;;;;;2.86;70.71;100300.19;347385;117;1962971;-73
2020/12/02 02:38:53;;;;;;;12.95;6.62;;;;;;;2.98;70.79;100313.38;304119;115;2765049;-75
2020/12/02 02:40:01;;;;;;;12.72;6.07;;;;;;;3.00;70.63;100314.09;347099;114;1962005;-74
2020/12/02 02:41:09;;;;;;;12.13;6.13;;;;;;;3.00;70.54;100312.25;304870;114;2776947;-74
2020/12/02 02:42:38;;;;;;;11.84;6.44;;;;;;;2.98;70.58;100322.22;346008;115;1961790;-74
2020/12/02 02:43:43;;;;;;;12.05;5.62;;;;;;;2.98;70.76;100324.05;344786;115;1961959;-75
2020/12/02 02:44:49;;;;;;;11.09;6.17;;;;;;;2.99;70.83;100320.39;346812;114;1961999;-74
2020/12/02 02:45:54;;;;;;;9.75;5.57;;;;;;;3.00;70.47;100320.26;346898;114;1961927;-74
2020/12/02 02:47:01;;;;;;;9.75;4.90;;;;;;;3.02;70.41;100320.13;349120;115;1961959;-75
2020/12/02 02:48:07;;;;;;;10.19;5.03;;;;;;;3.04;70.07;100324.34;326126;114;1961930;-75
2020/12/02 02:49:12;;;;;;;10.20;5.05;;;;;;;3.03;70.20;100322.64;350575;115;1961988;-75
2020/12/02 02:50:20;;;;;;;10.68;5.81;;;;;;;3.04;70.28;100321.67;349435;114;1963037;-74
2020/12/02 02:51:26;;;;;;;10.14;5.32;;;;;;;3.06;70.34;100317.02;316515;116;2514961;-75
2020/12/02 02:52:31;;;;;;;11.31;5.72;;;;;;;3.10;70.21;100322.94;323796;115;1961943;-74
2020/12/02 02:53:36;;;;;;;11.08;5.53;;;;;;;3.07;70.00;100318.72;346084;114;1961907;-75
2020/12/02 02:54:43;;;;;;;12.83;5.98;;;;;;;3.08;70.05;100324.89;347010;114;1961963;-74
2020/12/02 02:55:49;;;;;;;11.34;5.74;;;;;;;3.08;70.05;100324.89;346067;114;1961958;-75
2020/12/02 02:56:55;;;;;;;10.47;5.93;;;;;;;3.07;70.07;100325.89;317704;114;2487992;-74
2020/12/02 02:58:01;;;;;;;10.94;5.54;;;;;;;3.06;70.23;100321.52;333965;114;1963975;-74
2020/12/02 02:59:08;;;;;;;10.76;5.92;;;;;;;3.06;70.27;100324.19;345537;115;1964010;-74
2020/12/02 03:00:21;;;;;;;10.24;5.04;;;;;;;3.06;70.32;100324.19;328963;114;2284082;-74
2020/12/02 03:01:27;;;;;;;10.73;5.14;;;;;;;3.09;70.40;100329.23;347895;114;1961965;-75
2020/12/02 03:02:33;;;;;;;11.38;6.09;;;;;;;3.11;70.04;100327.28;347407;115;1961936;-74
2020/12/02 03:03:38;;;;;;;11.43;5.43;;;;;;;3.11;70.07;100329.95;348097;114;1963972;-74
2020/12/02 03:04:44;;;;;;;9.41;5.02;;;;;;;3.11;69.86;100323.77;309217;114;2678085;-73
2020/12/02 03:05:51;;;;;;;11.26;5.69;;;;;;;3.11;70.03;100323.77;335855;115;1965025;-74
2020/12/02 03:06:56;;;;;;;10.85;5.77;;;;;;;3.10;70.04;100325.60;345695;114;1962984;-75
2020/12/02 03:08:05;;;;;;;11.31;6.03;;;;;;;3.08;70.05;100325.73;348463;114;1962054;-75
2020/12/02 03:09:12;;;;;;;9.99;5.17;;;;;;;3.06;70.08;100335.70;346882;114;1964010;-74
2020/12/02 03:10:22;;;;;;;12.25;6.33;;;;;;;3.03;70.18;100330.65;307571;117;2607964;-74
2020/12/02 03:11:27;;;;;;;10.86;5.79;;;;;;;3.02;70.07;100326.30;347204;114;1961946;-75
2020/12/02 03:12:34;;;;;;;10.58;5.53;;;;;;;3.00;70.09;100330.09;336845;114;1962122;-76
2020/12/02 03:13:46;;;;;;;10.63;5.50;;;;;;;3.03;70.14;100329.81;346983;114;1961864;-75
2020/12/02 03:14:52;;;;;;;11.46;6.64;;;;;;;3.04;69.81;100323.48;347973;114;1962000;-73
2020/12/02 03:16:03;;;;;;;11.09;5.74;;;;;;;3.04;69.70;100328.81;318455;115;2233319;-74
2020/12/02 03:17:15;;;;;;;12.12;5.71;;;;;;;3.05;69.73;100327.84;345891;115;1961924;-74
2020/12/02 03:18:24;;;;;;;14.18;6.66;;;;;;;3.04;69.64;100324.34;296770;116;2883997;-74
2020/12/02 03:19:33;;;;;;;13.05;7.59;;;;;;;2.98;69.37;100326.72;348195;114;1962990;-75
2020/12/02 03:20:46;;;;;;;12.05;7.24;;;;;;;2.90;69.59;100319.41;345142;115;1965029;-74
2020/12/02 03:21:55;;;;;;;14.13;8.46;;;;;;;2.80;69.66;100327.41;349067;114;1962944;-75
2020/12/02 03:23:01;;;;;;;13.94;7.86;;;;;;;2.70;69.50;100321.25;339437;114;1963973;-75
2020/12/02 03:24:08;;;;;;;16.09;9.19;;;;;;;2.60;69.51;100326.56;347010;116;1962995;-75
2020/12/02 03:25:23;;;;;;;16.71;8.86;;;;;;;2.50;69.63;100319.53;318321;114;2519016;-76
2020/12/02 03:26:30;;;;;;;16.80;8.52;;;;;;;2.38;69.77;100322.32;319830;114;1961983;-75
2020/12/02 03:27:35;;;;;;;17.51;9.24;;;;;;;2.29;69.82;100331.13;346107;114;1963964;-76
2020/12/02 03:28:40;;;;;;;16.12;10.11;;;;;;;2.20;70.12;100326.62;346360;114;1963012;-75
2020/12/02 03:29:46;;;;;;;16.87;9.59;;;;;;;2.12;70.32;100321.13;345919;114;1962039;-74
2020/12/02 03:30:53;;;;;;;17.81;8.55;;;;;;;2.06;70.46;100321.64;325520;114;2375971;-74
2020/12/02 03:31:58;;;;;;;17.85;9.41;;;;;;;2.01;70.66;100322.05;342017;114;1962035;-74
2020/12/02 03:33:06;;;;;;;14.69;8.86;;;;;;;2.00;70.69;100327.52;347582;115;1962029;-75
2020/12/02 03:34:15;;;;;;;12.60;7.39;;;;;;;2.04;70.49;100327.12;346023;115;1962014;-75
2020/12/02 03:35:21;;;;;;;15.33;8.39;;;;;;;2.07;70.33;100328.69;346128;115;1961957;-73
2020/12/02 03:36:27;;;;;;;15.11;7.58;;;;;;;2.12;70.40;100326.45;312623;115;1961985;-74
2020/12/02 03:37:32;;;;;;;13.41;7.52;;;;;;;2.14;70.36;100319.14;346277;114;1961955;-75
2020/12/02 03:38:38;;;;;;;14.03;8.03;;;;;;;2.20;70.40;100318.63;347115;114;1962000;-74
2020/12/02 03:39:44;;;;;;;15.12;7.31;;;;;;;2.25;70.18;100316.39;342443;117;1964031;-74
2020/12/02 03:40:51;;;;;;;15.07;7.96;;;;;;;2.29;70.34;100315.13;349814;114;1962994;-74
2020/12/02 03:41:56;;;;;;;16.09;7.87;;;;;;;1.75;70.30;100226.63;333365;114;1961990;-74
2020/12/02 03:43:01;;;;;;;17.23;8.40;;;;;;;2.42;70.16;100313.05;348856;114;1963051;-74
2020/12/02 03:44:07;;;;;;;13.10;7.56;;;;;;;2.45;69.96;100314.59;349483;114;1964981;-74
2020/12/02 03:45:12;;;;;;;17.08;7.84;;;;;;;2.49;69.92;100320.48;348853;114;1961988;-75
2020/12/02 03:46:19;;;;;;;15.26;8.02;;;;;;;2.52;69.32;100314.91;321842;114;2221981;-76
2020/12/02 03:47:25;;;;;;;15.71;9.24;;;;;;;2.52;69.61;100317.57;339316;114;1963979;-74
2020/12/02 03:48:30;;;;;;;16.15;8.71;;;;;;;2.49;69.50;100310.69;349247;114;1962017;-74
2020/12/02 03:49:36;;;;;;;17.14;9.13;;;;;;;2.44;69.66;100312.92;348132;114;1961975;-75
2020/12/02 03:50:44;;;;;;;16.19;9.27;;;;;;;2.39;69.72;100313.33;346364;115;1962008;-74
2020/12/02 03:51:49;;;;;;;19.66;10.38;;;;;;;2.30;69.80;100316.83;348929;114;1961926;-75
2020/12/02 03:52:55;;;;;;;16.79;9.78;;;;;;;2.26;69.77;100314.56;349077;114;1962032;-75
2020/12/02 03:54:00;;;;;;;19.06;10.04;;;;;;;2.15;70.06;100307.53;348750;114;1963926;-75
2020/12/02 03:55:08;;;;;;;18.26;9.62;;;;;;;2.07;70.26;100310.03;305251;114;2796949;-74
2020/12/02 03:56:14;;;;;;;16.66;8.84;;;;;;;2.02;70.61;100314.91;348677;114;1962039;-74
2020/12/02 03:57:20;;;;;;;16.12;8.44;;;;;;;1.97;70.66;100318.81;346838;115;1964989;-74
2020/12/02 03:58:26;;;;;;;14.86;8.37;;;;;;;1.96;70.72;100317.14;312442;114;2669016;-77
2020/12/02 03:59:44;;;;;;;18.47;8.06;;;;;;;2.00;70.96;100316.87;323715;114;1961924;-74
2020/12/02 04:00:50;;;;;;;15.74;7.50;;;;;;;2.07;70.95;100320.69;306979;113;2733992;-75
2020/12/02 04:01:56;;;;;;;19.60;9.37;;;;;;;2.14;70.90;100322.68;324483;116;1962027;-74
2020/12/02 04:03:02;;;;;;;15.57;7.86;;;;;;;2.20;70.78;100324.80;340757;117;1962039;-75
2020/12/02 04:04:08;;;;;;;14.17;7.43;;;;;;;2.27;70.60;100321.57;341084;117;1961932;-75
2020/12/02 04:05:15;;;;;;;19.98;7.97;;;;;;;2.31;70.43;100315.00;290315;120;2800082;-75
2020/12/02 04:06:22;;;;;;;14.66;8.34;;;;;;;2.34;70.24;100318.23;343907;115;1961937;-75
2020/12/02 04:07:28;;;;;;;15.64;8.17;;;;;;;2.38;70.04;100322.32;343782;115;1963971;-75
2020/12/02 04:08:36;;;;;;;13.85;8.01;;;;;;;2.44;69.84;100322.75;300253;116;2815042;-75
2020/12/02 04:09:43;;;;;;;14.17;8.82;;;;;;;2.45;69.80;100321.77;342881;115;1963043;-76
2020/12/02 04:10:49;;;;;;;17.50;9.94;;;;;;;2.50;70.01;100324.86;306039;117;2031868;-75
2020/12/02 04:11:54;;;;;;;16.46;9.02;;;;;;;2.52;69.86;100328.23;341612;117;1960948;-75
2020/12/02 04:12:59;;;;;;;14.20;7.54;;;;;;;2.49;69.50;100326.69;340230;117;1963049;-74
2020/12/02 04:14:05;;;;;;;18.10;9.94;;;;;;;2.46;69.52;100323.44;341515;117;1961906;-74
2020/12/02 04:15:12;;;;;;;18.94;10.73;;;;;;;2.41;69.50;100326.53;340980;117;1961478;-75
2020/12/02 04:16:19;;;;;;;16.86;9.91;;;;;;;2.36;69.61;100326.10;340276;117;1962041;-75
2020/12/02 04:17:25;;;;;;;21.42;11.16;;;;;;;2.31;69.70;100325.67;340665;117;1963001;-74
2020/12/02 04:18:31;;;;;;;22.20;11.45;;;;;;;2.25;69.73;100329.72;324157;117;2308988;-76
2020/12/02 04:19:36;;;;;;;18.56;11.04;;;;;;;2.16;69.97;100326.03;324848;117;1962000;-76
2020/12/02 04:20:42;;;;;;;21.70;12.87;;;;;;;2.11;69.92;100333.58;341532;117;1960692;-74
2020/12/02 04:21:48;;;;;;;21.92;11.89;;;;;;;2.06;70.11;100332.30;340892;117;1962082;-75
2020/12/02 04:22:55;;;;;;;18.01;10.18;;;;;;;1.96;70.19;100325.13;318382;117;2400958;-75
2020/12/02 04:24:01;;;;;;;19.83;10.96;;;;;;;1.90;70.29;100327.47;343439;115;1963990;-74
2020/12/02 04:25:06;;;;;;;19.89;9.51;;;;;;;1.85;70.60;100325.20;344595;115;1961937;-75
2020/12/02 04:26:12;;;;;;;20.11;10.37;;;;;;;1.85;70.80;100329.70;344140;115;1962018;-75
2020/12/02 04:27:18;;;;;;;17.65;9.25;;;;;;;1.86;70.82;100329.58;312283;115;2571042;-74
2020/12/02 04:28:24;;;;;;;18.31;9.35;;;;;;;1.91;70.88;100326.52;313735;117;1962015;-74
2020/12/02 04:29:29;;;;;;;19.27;9.74;;;;;;;1.95;70.90;100328.75;338893;117;1962004;-74
2020/12/02 04:30:36;;;;;;;18.90;9.71;;;;;;;2.02;70.74;100325.58;343617;115;1962000;-75
2020/12/02 04:31:42;;;;;;;20.06;10.97;;;;;;;2.08;70.49;100319.70;302091;117;2726166;-75
2020/12/02 04:32:48;;;;;;;22.11;9.84;;;;;;;2.13;70.43;100326.30;325227;115;1965973;-76
2020/12/02 04:33:54;;;;;;;18.20;9.82;;;;;;;2.15;70.06;100327.02;343733;115;1963002;-75
2020/12/02 04:35:01;;;;;;;17.34;9.22;;;;;;;2.15;69.98;100328.84;342074;115;1961971;-74
2020/12/02 04:36:20;;;;;;;17.81;9.89;;;;;;;2.19;70.02;100327.58;341076;116;1962917;-75
2020/12/02 04:37:25;;;;;;;22.12;10.77;;;;;;;2.23;69.94;100329.01;345898;115;1963051;-75
2020/12/02 04:38:31;;;;;;;19.61;10.41;;;;;;;2.26;69.61;100326.06;315228;117;2446084;-74
2020/12/02 04:39:36;;;;;;;22.86;11.58;;;;;;;2.26;69.30;100325.23;326748;114;1961998;-75
2020/12/02 04:40:42;;;;;;;21.11;11.36;;;;;;;2.23;69.47;100329.01;346279;115;1961954;-75
2020/12/02 04:41:48;;;;;;;23.30;13.01;;;;;;;2.19;69.35;100327.58;345758;115;1961953;-75
2020/12/02 04:43:01;;;;;;;22.33;12.22;;;;;;;2.12;69.50;100327.30;304506;115;2775983;-75
2020/12/02 04:44:09;;;;;;;21.94;11.13;;;;;;;2.02;69.47;100323.75;345809;115;1962019;-76
2020/12/02 04:45:17;;;;;;;24.24;12.66;;;;;;;1.94;69.52;100319.09;346153;115;1961965;-75
2020/12/02 04:46:31;;;;;;;22.49;13.54;;;;;;;1.87;69.80;100320.59;305125;118;1967283;-75
2020/12/02 04:47:39;;;;;;;23.99;14.81;;;;;;;1.80;69.84;100322.13;344388;115;1962938;-75
2020/12/02 04:48:48;;;;;;;24.97;13.86;;;;;;;1.72;70.12;100328.11;347733;115;1960828;-75
2020/12/02 04:49:54;;;;;;;24.63;11.98;;;;;;;1.68;70.40;100320.52;345754;115;1961859;-75
2020/12/02 04:51:03;;;;;;;20.84;11.14;;;;;;;1.64;70.18;100325.27;345751;115;1961975;-75
2020/12/02 04:52:13;;;;;;;20.65;11.17;;;;;;;1.60;70.47;100320.33;345038;115;1963023;-75
2020/12/02 04:53:23;;;;;;;21.44;11.48;;;;;;;1.59;70.60;100322.16;344472;115;1961037;-74
2020/12/02 04:54:30;;;;;;;20.64;10.54;;;;;;;1.64;70.66;100319.95;345885;115;1961992;-75
2020/12/02 04:55:36;;;;;;;19.83;9.82;;;;;;;1.68;70.69;100324.02;311857;104;2231104;-76
2020/12/02 04:56:45;;;;;;;19.22;10.05;;;;;;;1.72;70.63;100313.92;369781;108;1961933;-75
2020/12/02 04:57:50;;;;;;;21.28;9.86;;;;;;;1.78;70.69;100318.75;326453;108;2049983;-75
2020/12/02 04:58:57;;;;;;;20.96;11.01;;;;;;;1.86;70.76;100315.41;368798;108;1961992;-75
2020/12/02 05:00:22;;;;;;;19.41;10.66;;;;;;;1.92;70.71;100321.03;366483;108;1961974;-75
2020/12/02 05:01:32;;;;;;;20.81;11.26;;;;;;;1.94;70.62;100324.42;366871;108;1962995;-75
2020/12/02 05:02:37;;;;;;;20.61;11.67;;;;;;;2.02;70.58;100318.42;366125;108;1961919;-75
2020/12/02 05:03:52;;;;;;;22.08;10.88;;;;;;;2.09;70.58;100316.91;367960;108;1963977;-75
2020/12/02 05:05:00;;;;;;;19.53;10.28;;;;;;;2.15;70.47;100320.85;368438;108;1962933;-76
2020/12/02 05:06:06;;;;;;;20.72;10.82;;;;;;;2.22;70.36;100319.30;365187;108;1962025;-75
2020/12/02 05:07:17;;;;;;;22.21;11.06;;;;;;;2.28;69.85;100317.95;363483;110;1962009;-77
2020/12/02 05:08:30;;;;;;;;;;;;;;;2.32;70.06;100317.52;336396;108;2208995;-75
2020/12/02 05:09:37;;;;;;;;;;;;;;;2.36;69.31;100320.77;369214;108;1960019;-75
2020/12/02 05:10:43;;;;;;;20.49;10.84;;;;;;;2.37;69.36;100323.28;342260;108;1959671;-75
2020/12/02 05:11:58;;;;;;;22.03;11.97;;;;;;;2.38;69.68;100330.32;365412;108;1962968;-76
2020/12/02 05:13:07;;;;;;;24.93;12.39;;;;;;;2.38;69.55;100324.12;367585;108;1961961;-76